createdAt,value
2017-03-22T00:00:01.449Z,8.08
2017-03-22T00:00:42.334Z,7.97
2017-03-22T00:01:23.203Z,8.01
2017-03-22T00:02:04.083Z,8.01
2017-03-22T00:02:44.976Z,7.95
2017-03-22T00:03:25.861Z,7.91
2017-03-22T00:04:06.737Z,8.08
2017-03-22T00:04:47.800Z,8.08
2017-03-22T00:05:28.682Z,8
2017-03-22T00:06:09.565Z,7.95
2017-03-22T00:06:50.455Z,8
2017-03-22T00:07:31.332Z,7.87
2017-03-22T00:08:12.215Z,7.85
2017-03-22T00:08:53.104Z,7.85
2017-03-22T00:09:34.020Z,7.88
2017-03-22T00:10:14.936Z,7.83
2017-03-22T00:10:55.812Z,7.8
2017-03-22T00:11:36.692Z,7.83
2017-03-22T00:12:17.571Z,7.87
2017-03-22T00:12:58.455Z,7.76
2017-03-22T00:13:39.341Z,7.77
2017-03-22T00:14:20.233Z,7.8
2017-03-22T00:15:01.131Z,7.82
2017-03-22T00:15:42.018Z,7.87
2017-03-22T00:16:22.895Z,7.85
2017-03-22T00:17:03.773Z,7.77
2017-03-22T00:17:44.664Z,7.82
2017-03-22T00:18:25.548Z,7.82
2017-03-22T00:19:06.475Z,7.9
2017-03-22T00:19:47.368Z,7.76
2017-03-22T00:20:28.266Z,7.87
2017-03-22T00:21:09.145Z,7.83
2017-03-22T00:21:50.041Z,7.8
2017-03-22T00:22:30.921Z,7.72
2017-03-22T00:23:11.805Z,7.67
2017-03-22T00:23:52.687Z,7.72
2017-03-22T00:24:33.575Z,7.82
2017-03-22T00:25:14.456Z,7.75
2017-03-22T00:25:55.333Z,7.7
2017-03-22T00:26:36.219Z,7.7
2017-03-22T00:27:17.174Z,7.6
2017-03-22T00:27:57.986Z,7.66
2017-03-22T00:28:38.867Z,7.67
2017-03-22T00:29:20.148Z,7.63
2017-03-22T00:30:01.030Z,7.63
2017-03-22T00:30:41.917Z,7.66
2017-03-22T00:31:23.336Z,7.67
2017-03-22T00:32:04.223Z,7.66
2017-03-22T00:32:45.107Z,7.66
2017-03-22T00:33:25.994Z,7.66
2017-03-22T00:34:06.886Z,7.7
2017-03-22T00:34:47.776Z,7.7
2017-03-22T00:35:28.656Z,7.7
2017-03-22T00:36:09.540Z,7.58
2017-03-22T00:36:50.402Z,7.66
2017-03-22T00:37:31.328Z,7.61
2017-03-22T00:38:12.218Z,7.6
2017-03-22T00:38:53.101Z,7.69
2017-03-22T00:39:33.985Z,7.67
2017-03-22T00:40:14.857Z,7.51
2017-03-22T00:40:55.743Z,7.69
2017-03-22T00:41:36.626Z,7.69
2017-03-22T00:42:17.843Z,7.69
2017-03-22T00:42:58.721Z,7.67
2017-03-22T00:43:39.763Z,7.66
2017-03-22T00:44:20.641Z,7.67
2017-03-22T00:45:01.530Z,7.75
2017-03-22T00:45:42.415Z,7.67
2017-03-22T00:46:23.298Z,7.63
2017-03-22T00:47:04.178Z,7.67
2017-03-22T00:47:45.065Z,7.7
2017-03-22T00:48:26.348Z,7.6
2017-03-22T00:49:07.747Z,7.67
2017-03-22T00:49:49.801Z,7.72
2017-03-22T00:50:30.728Z,7.7
2017-03-22T00:51:11.688Z,7.61
2017-03-22T00:51:52.578Z,7.54
2017-03-22T00:52:33.472Z,7.66
2017-03-22T00:53:14.345Z,7.61
2017-03-22T00:53:55.227Z,7.6
2017-03-22T00:54:36.148Z,7.61
2017-03-22T00:55:17.042Z,7.67
2017-03-22T00:55:57.931Z,7.54
2017-03-22T00:56:38.819Z,7.5
2017-03-22T00:57:19.704Z,7.51
2017-03-22T00:58:00.581Z,7.4
2017-03-22T00:58:41.466Z,7.4
2017-03-22T00:59:22.339Z,7.35
2017-03-22T01:00:03.217Z,7.42
2017-03-22T01:00:44.094Z,7.47
2017-03-22T01:01:24.975Z,7.39
2017-03-22T01:02:05.861Z,7.39
2017-03-22T01:02:46.761Z,7.39
2017-03-22T01:03:27.643Z,7.43
2017-03-22T01:04:08.583Z,7.35
2017-03-22T01:04:49.458Z,7.33
2017-03-22T01:05:30.351Z,7.36
2017-03-22T01:06:11.221Z,7.4
2017-03-22T01:06:52.530Z,7.47
2017-03-22T01:07:33.673Z,7.36
2017-03-22T01:08:14.559Z,7.38
2017-03-22T01:08:55.435Z,7.5
2017-03-22T01:09:36.319Z,7.48
2017-03-22T01:10:17.204Z,7.53
2017-03-22T01:10:58.085Z,7.33
2017-03-22T01:11:38.977Z,7.31
2017-03-22T01:12:19.862Z,7.35
2017-03-22T01:13:00.739Z,7.32
2017-03-22T01:13:41.620Z,7.32
2017-03-22T01:14:22.588Z,7.48
2017-03-22T01:15:03.640Z,7.38
2017-03-22T01:15:44.527Z,7.35
2017-03-22T01:16:25.416Z,7.47
2017-03-22T01:17:06.295Z,7.43
2017-03-22T01:17:47.180Z,7.39
2017-03-22T01:18:28.140Z,7.4
2017-03-22T01:19:09.027Z,7.35
2017-03-22T01:19:49.912Z,7.45
2017-03-22T01:20:30.785Z,7.39
2017-03-22T01:21:11.670Z,7.28
2017-03-22T01:21:52.555Z,7.2
2017-03-22T01:22:33.445Z,7.21
2017-03-22T01:23:14.326Z,7.23
2017-03-22T01:23:55.209Z,7.15
2017-03-22T01:24:36.090Z,7.13
2017-03-22T01:25:17.166Z,7.06
2017-03-22T01:25:58.098Z,7.13
2017-03-22T01:26:39.009Z,7.13
2017-03-22T01:27:19.886Z,7.14
2017-03-22T01:28:00.763Z,7.18
2017-03-22T01:28:41.643Z,7.05
2017-03-22T01:29:22.596Z,7.05
2017-03-22T01:30:03.485Z,7.06
2017-03-22T01:30:44.372Z,7.14
2017-03-22T01:31:25.260Z,7.13
2017-03-22T01:32:06.144Z,7.06
2017-03-22T01:32:47.030Z,7.14
2017-03-22T01:33:27.933Z,7.15
2017-03-22T01:34:08.817Z,7.14
2017-03-22T01:34:49.710Z,7.02
2017-03-22T01:35:30.582Z,7.05
2017-03-22T01:36:11.448Z,7.03
2017-03-22T01:36:52.335Z,7.05
2017-03-22T01:37:33.218Z,7.02
2017-03-22T01:38:14.104Z,7.13
2017-03-22T01:38:54.987Z,7.11
2017-03-22T01:39:35.874Z,7.15
2017-03-22T01:40:16.752Z,7.17
2017-03-22T01:40:57.635Z,7.07
2017-03-22T01:41:38.513Z,7.02
2017-03-22T01:42:19.401Z,7.23
2017-03-22T01:43:00.273Z,7.24
2017-03-22T01:43:41.160Z,7.18
2017-03-22T01:44:22.046Z,7.17
2017-03-22T01:45:02.924Z,7.07
2017-03-22T01:45:43.807Z,7.18
2017-03-22T01:46:24.678Z,7.17
2017-03-22T01:47:05.567Z,7.21
2017-03-22T01:47:46.453Z,7.14
2017-03-22T01:48:27.328Z,7.2
2017-03-22T01:49:08.247Z,7.14
2017-03-22T01:49:49.127Z,7.17
2017-03-22T01:50:30.008Z,7.2
2017-03-22T01:51:10.889Z,7.14
2017-03-22T01:51:51.777Z,7.17
2017-03-22T01:52:32.644Z,7.21
2017-03-22T01:53:13.532Z,7.18
2017-03-22T01:53:54.422Z,7.14
2017-03-22T01:54:35.294Z,7.21
2017-03-22T01:55:16.182Z,7.18
2017-03-22T01:55:57.067Z,7.06
2017-03-22T01:56:37.944Z,7.15
2017-03-22T01:57:18.824Z,7.1
2017-03-22T01:57:59.711Z,7.06
2017-03-22T01:58:40.604Z,7
2017-03-22T01:59:21.481Z,6.93
2017-03-22T02:00:02.366Z,7.02
2017-03-22T02:00:43.250Z,7.1
2017-03-22T02:01:24.143Z,7.03
2017-03-22T02:02:05.031Z,7.06
2017-03-22T02:02:45.913Z,7.15
2017-03-22T02:03:26.787Z,7.17
2017-03-22T02:04:07.684Z,7.07
2017-03-22T02:04:48.568Z,7.17
2017-03-22T02:05:29.448Z,7.05
2017-03-22T02:06:10.338Z,7.03
2017-03-22T02:06:51.212Z,7.02
2017-03-22T02:07:32.100Z,7.02
2017-03-22T02:08:12.982Z,7.06
2017-03-22T02:08:53.870Z,7
2017-03-22T02:09:34.751Z,7
2017-03-22T02:10:15.641Z,7.03
2017-03-22T02:10:56.517Z,6.87
2017-03-22T02:11:37.398Z,6.92
2017-03-22T02:12:18.283Z,6.82
2017-03-22T02:12:59.164Z,6.79
2017-03-22T02:13:40.045Z,6.92
2017-03-22T02:14:20.927Z,6.88
2017-03-22T02:15:01.816Z,6.96
2017-03-22T02:15:42.695Z,6.88
2017-03-22T02:16:23.578Z,6.88
2017-03-22T02:17:04.460Z,6.84
2017-03-22T02:17:45.344Z,6.84
2017-03-22T02:18:26.227Z,6.75
2017-03-22T02:19:07.118Z,6.78
2017-03-22T02:19:47.995Z,6.77
2017-03-22T02:20:28.872Z,6.72
2017-03-22T02:21:09.753Z,6.77
2017-03-22T02:21:50.642Z,6.67
2017-03-22T02:22:31.527Z,6.74
2017-03-22T02:23:12.401Z,6.74
2017-03-22T02:23:53.297Z,6.72
2017-03-22T02:24:34.179Z,6.67
2017-03-22T02:25:15.059Z,6.7
2017-03-22T02:25:55.937Z,6.66
2017-03-22T02:26:36.826Z,6.66
2017-03-22T02:27:17.715Z,6.69
2017-03-22T02:27:58.602Z,6.78
2017-03-22T02:28:39.484Z,6.67
2017-03-22T02:29:20.360Z,6.63
2017-03-22T02:30:01.249Z,6.74
2017-03-22T02:30:42.139Z,6.67
2017-03-22T02:31:23.028Z,6.67
2017-03-22T02:32:03.904Z,6.7
2017-03-22T02:32:44.785Z,6.62
2017-03-22T02:33:25.667Z,6.62
2017-03-22T02:34:06.550Z,6.57
2017-03-22T02:34:47.436Z,6.56
2017-03-22T02:35:28.327Z,6.62
2017-03-22T02:36:09.214Z,6.69
2017-03-22T02:36:50.101Z,6.64
2017-03-22T02:37:30.986Z,6.59
2017-03-22T02:38:11.852Z,6.59
2017-03-22T02:38:52.736Z,6.56
2017-03-22T02:39:33.631Z,6.63
2017-03-22T02:40:14.498Z,6.52
2017-03-22T02:40:55.371Z,6.63
2017-03-22T02:41:36.270Z,6.63
2017-03-22T02:42:17.144Z,6.6
2017-03-22T02:42:58.030Z,6.69
2017-03-22T02:43:38.909Z,6.74
2017-03-22T02:44:19.796Z,6.72
2017-03-22T02:45:00.679Z,6.62
2017-03-22T02:45:41.558Z,6.62
2017-03-22T02:46:22.437Z,6.56
2017-03-22T02:47:03.323Z,6.51
2017-03-22T02:47:44.211Z,6.56
2017-03-22T02:48:25.092Z,6.54
2017-03-22T02:49:05.976Z,6.54
2017-03-22T02:49:46.861Z,6.54
2017-03-22T02:50:27.744Z,6.52
2017-03-22T02:51:08.635Z,6.45
2017-03-22T02:51:49.514Z,6.52
2017-03-22T02:52:30.394Z,6.44
2017-03-22T02:53:11.274Z,6.41
2017-03-22T02:53:52.162Z,6.45
2017-03-22T02:54:33.033Z,6.6
2017-03-22T02:55:13.912Z,6.62
2017-03-22T02:55:54.788Z,6.41
2017-03-22T02:56:35.671Z,6.44
2017-03-22T02:57:16.550Z,6.44
2017-03-22T02:57:57.431Z,6.44
2017-03-22T02:58:38.318Z,6.54
2017-03-22T02:59:19.201Z,6.45
2017-03-22T03:00:00.087Z,6.42
2017-03-22T03:00:40.969Z,6.42
2017-03-22T03:01:21.880Z,6.38
2017-03-22T03:02:02.737Z,6.42
2017-03-22T03:02:43.618Z,6.42
2017-03-22T03:03:24.506Z,6.42
2017-03-22T03:04:06.103Z,6.45
2017-03-22T03:04:46.999Z,6.42
2017-03-22T03:05:27.878Z,6.46
2017-03-22T03:06:08.754Z,6.45
2017-03-22T03:06:49.635Z,6.49
2017-03-22T03:07:30.530Z,6.36
2017-03-22T03:08:11.418Z,6.44
2017-03-22T03:08:52.307Z,6.44
2017-03-22T03:09:33.193Z,6.48
2017-03-22T03:10:14.094Z,6.45
2017-03-22T03:10:54.969Z,6.54
2017-03-22T03:11:35.847Z,6.54
2017-03-22T03:12:16.733Z,6.57
2017-03-22T03:12:57.625Z,6.59
2017-03-22T03:13:38.502Z,6.44
2017-03-22T03:14:19.387Z,6.42
2017-03-22T03:15:00.271Z,6.54
2017-03-22T03:15:41.157Z,6.52
2017-03-22T03:16:22.037Z,6.48
2017-03-22T03:17:02.922Z,6.41
2017-03-22T03:17:43.816Z,6.52
2017-03-22T03:18:24.704Z,6.39
2017-03-22T03:19:05.580Z,6.39
2017-03-22T03:19:46.460Z,6.42
2017-03-22T03:20:27.348Z,6.49
2017-03-22T03:21:08.238Z,6.39
2017-03-22T03:21:49.119Z,6.52
2017-03-22T03:22:30.010Z,6.51
2017-03-22T03:23:10.894Z,6.59
2017-03-22T03:23:51.774Z,6.57
2017-03-22T03:24:32.652Z,6.52
2017-03-22T03:25:13.535Z,6.49
2017-03-22T03:25:54.428Z,6.41
2017-03-22T03:26:35.307Z,6.39
2017-03-22T03:27:16.188Z,6.45
2017-03-22T03:27:57.074Z,6.42
2017-03-22T03:28:37.992Z,6.42
2017-03-22T03:29:18.881Z,6.51
2017-03-22T03:29:59.766Z,6.46
2017-03-22T03:30:40.683Z,6.39
2017-03-22T03:31:21.580Z,6.41
2017-03-22T03:32:02.454Z,6.46
2017-03-22T03:32:43.344Z,6.41
2017-03-22T03:33:24.227Z,6.39
2017-03-22T03:34:05.108Z,6.3
2017-03-22T03:34:45.982Z,6.39
2017-03-22T03:35:26.867Z,6.39
2017-03-22T03:36:07.752Z,6.54
2017-03-22T03:36:48.626Z,6.51
2017-03-22T03:37:29.511Z,6.52
2017-03-22T03:38:10.402Z,6.56
2017-03-22T03:38:51.270Z,6.46
2017-03-22T03:39:32.141Z,6.39
2017-03-22T03:40:13.026Z,6.33
2017-03-22T03:40:53.911Z,6.31
2017-03-22T03:41:34.793Z,6.45
2017-03-22T03:42:15.684Z,6.44
2017-03-22T03:42:56.568Z,6.31
2017-03-22T03:43:37.449Z,6.3
2017-03-22T03:44:18.329Z,6.31
2017-03-22T03:44:59.220Z,6.3
2017-03-22T03:45:40.096Z,6.46
2017-03-22T03:46:20.981Z,6.45
2017-03-22T03:47:01.865Z,6.33
2017-03-22T03:47:42.753Z,6.27
2017-03-22T03:48:23.634Z,6.33
2017-03-22T03:49:04.519Z,6.3
2017-03-22T03:49:45.406Z,6.28
2017-03-22T03:50:26.294Z,6.3
2017-03-22T03:51:07.171Z,6.38
2017-03-22T03:51:48.049Z,6.3
2017-03-22T03:52:28.929Z,6.38
2017-03-22T03:53:09.828Z,6.31
2017-03-22T03:53:50.714Z,6.31
2017-03-22T03:54:31.597Z,6.33
2017-03-22T03:55:12.485Z,6.45
2017-03-22T03:55:53.371Z,6.36
2017-03-22T03:56:34.258Z,6.45
2017-03-22T03:57:15.140Z,6.38
2017-03-22T03:57:56.029Z,6.33
2017-03-22T03:58:36.922Z,6.33
2017-03-22T03:59:17.809Z,6.36
2017-03-22T03:59:58.685Z,6.33
2017-03-22T04:00:39.566Z,6.39
2017-03-22T04:01:20.459Z,6.35
2017-03-22T04:02:01.339Z,6.31
2017-03-22T04:02:42.210Z,6.27
2017-03-22T04:03:23.104Z,6.22
2017-03-22T04:04:03.996Z,6.27
2017-03-22T04:04:44.880Z,6.24
2017-03-22T04:05:25.760Z,6.2
2017-03-22T04:06:06.638Z,6.19
2017-03-22T04:06:47.543Z,6.22
2017-03-22T04:07:28.426Z,6.3
2017-03-22T04:08:09.320Z,6.24
2017-03-22T04:08:50.205Z,6.2
2017-03-22T04:09:31.102Z,6.16
2017-03-22T04:10:11.994Z,6.11
2017-03-22T04:10:52.879Z,6.17
2017-03-22T04:11:33.761Z,6.27
2017-03-22T04:12:14.642Z,6.09
2017-03-22T04:12:55.529Z,6.17
2017-03-22T04:13:36.422Z,6.17
2017-03-22T04:14:17.300Z,6.17
2017-03-22T04:14:58.182Z,6.11
2017-03-22T04:15:39.060Z,6.14
2017-03-22T04:16:19.947Z,6.17
2017-03-22T04:17:00.827Z,6.12
2017-03-22T04:17:41.709Z,6.11
2017-03-22T04:18:22.588Z,6.09
2017-03-22T04:19:03.471Z,6.08
2017-03-22T04:19:44.355Z,6.09
2017-03-22T04:20:25.236Z,6.24
2017-03-22T04:21:06.121Z,6.3
2017-03-22T04:21:47.004Z,6.28
2017-03-22T04:22:27.888Z,6.27
2017-03-22T04:23:08.772Z,6.26
2017-03-22T04:23:49.648Z,6.27
2017-03-22T04:24:30.532Z,6.27
2017-03-22T04:25:11.409Z,6.24
2017-03-22T04:25:52.307Z,6.24
2017-03-22T04:26:33.178Z,6.14
2017-03-22T04:27:14.068Z,6.22
2017-03-22T04:27:54.946Z,6.27
2017-03-22T04:28:35.848Z,6.27
2017-03-22T04:29:16.728Z,6.3
2017-03-22T04:29:57.607Z,6.3
2017-03-22T04:30:38.490Z,6.38
2017-03-22T04:31:19.372Z,6.36
2017-03-22T04:32:00.254Z,6.35
2017-03-22T04:32:41.139Z,6.38
2017-03-22T04:33:22.022Z,6.35
2017-03-22T04:34:02.904Z,6.28
2017-03-22T04:34:43.788Z,6.16
2017-03-22T04:35:24.699Z,6.22
2017-03-22T04:36:05.556Z,6.22
2017-03-22T04:36:46.428Z,6.27
2017-03-22T04:37:27.310Z,6.27
2017-03-22T04:38:08.201Z,6.16
2017-03-22T04:38:49.087Z,6.17
2017-03-22T04:39:29.967Z,6.14
2017-03-22T04:40:10.849Z,6.08
2017-03-22T04:40:51.733Z,6.04
2017-03-22T04:41:32.624Z,6.09
2017-03-22T04:42:13.508Z,6.09
2017-03-22T04:42:54.388Z,5.97
2017-03-22T04:43:35.273Z,5.91
2017-03-22T04:44:16.155Z,6.04
2017-03-22T04:44:57.042Z,6.01
2017-03-22T04:45:37.951Z,5.98
2017-03-22T04:46:18.844Z,6.02
2017-03-22T04:46:59.722Z,6.04
2017-03-22T04:47:40.641Z,5.91
2017-03-22T04:48:21.528Z,6.04
2017-03-22T04:49:02.413Z,5.97
2017-03-22T04:49:43.305Z,5.97
2017-03-22T04:50:24.185Z,5.89
2017-03-22T04:51:05.080Z,5.93
2017-03-22T04:51:45.977Z,5.91
2017-03-22T04:52:26.857Z,5.87
2017-03-22T04:53:07.737Z,5.89
2017-03-22T04:53:48.623Z,5.83
2017-03-22T04:54:29.512Z,5.97
2017-03-22T04:55:10.390Z,6.05
2017-03-22T04:55:51.259Z,6.08
2017-03-22T04:56:32.139Z,6.11
2017-03-22T04:57:13.024Z,6.17
2017-03-22T04:57:53.913Z,6.27
2017-03-22T04:58:34.794Z,6.3
2017-03-22T04:59:15.694Z,6.12
2017-03-22T04:59:56.582Z,6.16
2017-03-22T05:00:37.461Z,6.17
2017-03-22T05:01:18.335Z,6.09
2017-03-22T05:01:59.229Z,6.08
2017-03-22T05:02:40.116Z,6.02
2017-03-22T05:03:20.994Z,5.97
2017-03-22T05:04:01.868Z,5.91
2017-03-22T05:04:42.765Z,5.94
2017-03-22T05:05:23.648Z,5.84
2017-03-22T05:06:04.549Z,5.89
2017-03-22T05:06:45.471Z,5.87
2017-03-22T05:07:26.343Z,5.87
2017-03-22T05:08:07.212Z,5.87
2017-03-22T05:08:48.085Z,5.83
2017-03-22T05:09:28.973Z,5.79
2017-03-22T05:10:09.857Z,5.71
2017-03-22T05:10:50.763Z,5.8
2017-03-22T05:11:31.652Z,5.76
2017-03-22T05:12:12.564Z,5.8
2017-03-22T05:12:53.416Z,5.8
2017-03-22T05:13:34.291Z,5.76
2017-03-22T05:14:15.180Z,5.76
2017-03-22T05:14:56.058Z,5.72
2017-03-22T05:15:36.942Z,5.72
2017-03-22T05:16:17.822Z,5.71
2017-03-22T05:16:58.713Z,5.84
2017-03-22T05:17:39.599Z,5.69
2017-03-22T05:18:20.480Z,5.8
2017-03-22T05:19:01.358Z,5.8
2017-03-22T05:19:42.239Z,5.73
2017-03-22T05:20:23.133Z,5.71
2017-03-22T05:21:04.028Z,5.82
2017-03-22T05:21:44.914Z,5.86
2017-03-22T05:22:25.804Z,5.86
2017-03-22T05:23:06.686Z,5.86
2017-03-22T05:23:47.566Z,5.84
2017-03-22T05:24:28.448Z,5.9
2017-03-22T05:25:09.333Z,5.79
2017-03-22T05:25:50.217Z,5.87
2017-03-22T05:26:31.098Z,5.86
2017-03-22T05:27:11.982Z,5.84
2017-03-22T05:27:52.868Z,5.83
2017-03-22T05:28:33.749Z,5.83
2017-03-22T05:29:14.627Z,5.9
2017-03-22T05:29:55.509Z,5.86
2017-03-22T05:30:36.397Z,5.86
2017-03-22T05:31:17.281Z,5.94
2017-03-22T05:31:58.179Z,5.87
2017-03-22T05:32:39.067Z,6.02
2017-03-22T05:33:19.952Z,6.08
2017-03-22T05:34:00.838Z,6.08
2017-03-22T05:34:41.723Z,6.05
2017-03-22T05:35:22.609Z,6.19
2017-03-22T05:36:03.494Z,6.14
2017-03-22T05:36:44.383Z,6.19
2017-03-22T05:37:25.263Z,6.19
2017-03-22T05:38:06.149Z,6.17
2017-03-22T05:38:47.030Z,6.19
2017-03-22T05:39:27.913Z,6.11
2017-03-22T05:40:08.798Z,6.16
2017-03-22T05:40:49.684Z,6.28
2017-03-22T05:41:30.565Z,6.17
2017-03-22T05:42:11.442Z,6.19
2017-03-22T05:42:52.333Z,6.22
2017-03-22T05:43:33.215Z,6.27
2017-03-22T05:44:14.107Z,6.33
2017-03-22T05:44:54.993Z,6.3
2017-03-22T05:45:35.882Z,6.17
2017-03-22T05:46:16.769Z,6.12
2017-03-22T05:46:57.655Z,6.14
2017-03-22T05:47:38.567Z,6.17
2017-03-22T05:48:19.449Z,6.02
2017-03-22T05:49:00.341Z,6.05
2017-03-22T05:49:41.221Z,6.27
2017-03-22T05:50:22.117Z,6.24
2017-03-22T05:51:03.001Z,6.27
2017-03-22T05:51:43.884Z,6.24
2017-03-22T05:52:24.773Z,6.2
2017-03-22T05:53:05.658Z,6.11
2017-03-22T05:53:46.543Z,6.09
2017-03-22T05:54:27.425Z,6.08
2017-03-22T05:55:08.306Z,6.07
2017-03-22T05:55:49.198Z,5.91
2017-03-22T05:56:30.081Z,5.94
2017-03-22T05:57:10.960Z,6.07
2017-03-22T05:57:51.843Z,6.05
2017-03-22T05:58:32.726Z,6.11
2017-03-22T05:59:13.607Z,6.19
2017-03-22T05:59:54.486Z,6.07
2017-03-22T06:00:35.368Z,6.08
2017-03-22T06:01:16.250Z,6.17
2017-03-22T06:01:57.147Z,6.17
2017-03-22T06:02:38.033Z,6.22
2017-03-22T06:03:18.929Z,6.3
2017-03-22T06:03:59.815Z,6.48
2017-03-22T06:04:40.700Z,6.44
2017-03-22T06:05:21.577Z,6.44
2017-03-22T06:06:02.459Z,6.33
2017-03-22T06:06:43.339Z,6.31
2017-03-22T06:07:24.221Z,6.08
2017-03-22T06:08:05.105Z,6.14
2017-03-22T06:08:46.006Z,6.19
2017-03-22T06:09:26.897Z,6.31
2017-03-22T06:10:07.782Z,6.33
2017-03-22T06:10:48.654Z,6.31
2017-03-22T06:11:29.534Z,6.41
2017-03-22T06:12:10.421Z,6.33
2017-03-22T06:12:51.315Z,6.31
2017-03-22T06:13:32.192Z,6.27
2017-03-22T06:14:13.068Z,6.22
2017-03-22T06:14:53.935Z,6.22
2017-03-22T06:15:34.828Z,6.19
2017-03-22T06:16:15.711Z,6.14
2017-03-22T06:16:56.654Z,6.27
2017-03-22T06:17:37.537Z,6.27
2017-03-22T06:18:18.416Z,6.3
2017-03-22T06:18:59.299Z,6.35
2017-03-22T06:19:40.184Z,6.39
2017-03-22T06:20:21.063Z,6.46
2017-03-22T06:21:01.943Z,6.44
2017-03-22T06:21:42.833Z,6.39
2017-03-22T06:22:23.711Z,6.44
2017-03-22T06:23:04.596Z,6.54
2017-03-22T06:23:45.479Z,6.59
2017-03-22T06:24:26.364Z,6.52
2017-03-22T06:25:07.250Z,6.57
2017-03-22T06:25:48.153Z,6.54
2017-03-22T06:26:29.025Z,6.59
2017-03-22T06:27:09.929Z,6.42
2017-03-22T06:27:50.809Z,6.38
2017-03-22T06:28:31.690Z,6.33
2017-03-22T06:29:12.570Z,6.28
2017-03-22T06:29:53.488Z,6.39
2017-03-22T06:30:34.330Z,6.41
2017-03-22T06:31:15.219Z,6.54
2017-03-22T06:31:56.108Z,6.52
2017-03-22T06:32:36.992Z,6.67
2017-03-22T06:33:17.877Z,6.69
2017-03-22T06:33:58.751Z,6.69
2017-03-22T06:34:39.638Z,6.67
2017-03-22T06:36:08.168Z,6.82
2017-03-22T06:36:49.070Z,6.84
2017-03-22T06:37:29.994Z,6.99
2017-03-22T06:38:10.880Z,6.81
2017-03-22T06:38:51.761Z,6.84
2017-03-22T06:39:32.636Z,6.85
2017-03-22T06:40:13.515Z,6.87
2017-03-22T06:40:54.389Z,6.79
2017-03-22T06:41:35.269Z,6.78
2017-03-22T06:42:16.156Z,6.78
2017-03-22T06:42:57.028Z,6.79
2017-03-22T06:43:37.907Z,6.87
2017-03-22T06:44:18.788Z,6.85
2017-03-22T06:44:59.660Z,6.81
2017-03-22T06:45:40.545Z,6.84
2017-03-22T06:46:21.436Z,7.03
2017-03-22T06:47:02.319Z,6.85
2017-03-22T06:47:43.212Z,6.87
2017-03-22T06:48:24.112Z,6.82
2017-03-22T06:49:04.997Z,6.81
2017-03-22T06:49:45.889Z,6.85
2017-03-22T06:50:26.823Z,6.81
2017-03-22T06:51:07.671Z,6.79
2017-03-22T06:51:48.554Z,6.7
2017-03-22T06:52:29.427Z,6.69
2017-03-22T06:53:10.325Z,6.66
2017-03-22T06:53:51.210Z,6.72
2017-03-22T06:54:32.094Z,6.77
2017-03-22T06:55:12.996Z,6.72
2017-03-22T06:55:53.880Z,6.74
2017-03-22T06:56:34.760Z,6.79
2017-03-22T06:57:15.645Z,6.75
2017-03-22T06:57:56.528Z,6.75
2017-03-22T06:58:37.412Z,6.69
2017-03-22T06:59:18.291Z,6.74
2017-03-22T06:59:59.186Z,6.66
2017-03-22T07:00:40.067Z,6.74
2017-03-22T07:01:20.954Z,6.77
2017-03-22T07:02:01.839Z,6.81
2017-03-22T07:02:42.723Z,6.84
2017-03-22T07:03:23.601Z,6.88
2017-03-22T07:04:04.474Z,6.74
2017-03-22T07:04:45.363Z,6.89
2017-03-22T07:05:26.263Z,6.88
2017-03-22T07:06:07.149Z,6.81
2017-03-22T07:06:48.035Z,6.75
2017-03-22T07:07:28.918Z,6.78
2017-03-22T07:08:09.797Z,6.69
2017-03-22T07:08:50.674Z,6.77
2017-03-22T07:09:31.551Z,6.74
2017-03-22T07:10:12.433Z,6.77
2017-03-22T07:10:53.315Z,6.77
2017-03-22T07:11:34.209Z,6.78
2017-03-22T07:12:15.075Z,6.79
2017-03-22T07:12:55.960Z,6.82
2017-03-22T07:13:36.847Z,6.79
2017-03-22T07:14:17.738Z,6.87
2017-03-22T07:14:58.616Z,6.84
2017-03-22T07:15:39.498Z,6.85
2017-03-22T07:16:20.379Z,6.89
2017-03-22T07:17:01.276Z,6.97
2017-03-22T07:17:42.150Z,6.99
2017-03-22T07:18:23.036Z,7.06
2017-03-22T07:19:03.922Z,7.1
2017-03-22T07:19:44.806Z,7.07
2017-03-22T07:20:25.684Z,7.18
2017-03-22T07:21:06.569Z,7.2
2017-03-22T07:21:47.454Z,7.15
2017-03-22T07:22:28.341Z,7.18
2017-03-22T07:23:09.219Z,7.29
2017-03-22T07:23:50.097Z,7.29
2017-03-22T07:24:30.985Z,7.28
2017-03-22T07:25:11.872Z,7.33
2017-03-22T07:25:52.758Z,7.35
2017-03-22T07:26:33.640Z,7.35
2017-03-22T07:27:14.529Z,7.33
2017-03-22T07:27:55.404Z,7.43
2017-03-22T07:28:36.279Z,7.47
2017-03-22T07:29:17.162Z,7.45
2017-03-22T07:29:58.046Z,7.47
2017-03-22T07:30:38.936Z,7.47
2017-03-22T07:31:19.814Z,7.51
2017-03-22T07:32:00.692Z,7.45
2017-03-22T07:32:41.583Z,7.43
2017-03-22T07:33:22.460Z,7.36
2017-03-22T07:34:03.343Z,7.48
2017-03-22T07:34:44.227Z,7.66
2017-03-22T07:35:25.113Z,7.63
2017-03-22T07:36:05.995Z,7.48
2017-03-22T07:36:46.880Z,7.48
2017-03-22T07:37:27.761Z,7.51
2017-03-22T07:38:08.635Z,7.53
2017-03-22T07:38:49.522Z,7.51
2017-03-22T07:39:30.403Z,7.63
2017-03-22T07:40:11.286Z,7.53
2017-03-22T07:40:52.177Z,7.53
2017-03-22T07:41:33.064Z,7.56
2017-03-22T07:42:13.943Z,7.5
2017-03-22T07:42:54.826Z,7.5
2017-03-22T07:43:35.707Z,7.51
2017-03-22T07:44:16.592Z,7.51
2017-03-22T07:44:57.478Z,7.51
2017-03-22T07:45:38.349Z,7.53
2017-03-22T07:46:19.229Z,7.5
2017-03-22T07:47:00.133Z,7.56
2017-03-22T07:48:38.530Z,7.63
2017-03-22T07:49:19.428Z,7.7
2017-03-22T07:50:00.276Z,7.7
2017-03-22T07:50:41.147Z,7.63
2017-03-22T07:51:22.028Z,7.63
2017-03-22T07:52:02.908Z,7.63
2017-03-22T07:52:43.782Z,7.58
2017-03-22T07:53:24.671Z,7.48
2017-03-22T07:54:05.565Z,7.63
2017-03-22T07:54:46.448Z,7.67
2017-03-22T07:55:27.336Z,7.66
2017-03-22T07:56:08.213Z,7.67
2017-03-22T07:56:49.096Z,7.67
2017-03-22T07:57:29.977Z,7.66
2017-03-22T07:58:10.859Z,7.77
2017-03-22T07:58:51.739Z,7.75
2017-03-22T07:59:32.623Z,7.67
2017-03-22T08:00:13.509Z,7.83
2017-03-22T08:00:54.388Z,7.8
2017-03-22T08:01:35.272Z,8
2017-03-22T08:02:16.154Z,8.06
2017-03-22T08:02:57.032Z,8.2
2017-03-22T08:03:37.921Z,8.38
2017-03-22T08:04:18.799Z,8.33
2017-03-22T08:04:59.683Z,8.37
2017-03-22T08:05:40.567Z,8.31
2017-03-22T08:06:21.459Z,8.61
2017-03-22T08:07:02.358Z,8.76
2017-03-22T08:07:43.249Z,9.02
2017-03-22T08:08:24.130Z,9.16
2017-03-22T08:09:05.017Z,9.48
2017-03-22T08:09:45.907Z,9.48
2017-03-22T08:10:26.793Z,9.65
2017-03-22T08:11:07.679Z,9.79
2017-03-22T08:11:48.591Z,10.02
2017-03-22T08:12:29.475Z,10.15
2017-03-22T08:13:10.361Z,10.37
2017-03-22T08:13:51.242Z,10.41
2017-03-22T08:14:32.144Z,10.69
2017-03-22T08:15:13.022Z,10.94
2017-03-22T08:15:53.906Z,11.08
2017-03-22T08:16:34.804Z,11.23
2017-03-22T08:17:15.695Z,11.29
2017-03-22T08:17:56.582Z,11.44
2017-03-22T08:18:37.470Z,11.44
2017-03-22T08:19:18.370Z,11.43
2017-03-22T08:19:59.260Z,11.37
2017-03-22T08:20:40.160Z,11.7
2017-03-22T08:21:21.036Z,11.68
2017-03-22T08:22:01.928Z,11.57
2017-03-22T08:22:42.821Z,11.55
2017-03-22T08:23:23.812Z,11.69
2017-03-22T08:24:04.698Z,11.9
2017-03-22T08:24:45.592Z,11.88
2017-03-22T08:25:26.488Z,11.87
2017-03-22T08:26:07.396Z,12.03
2017-03-22T08:26:48.302Z,12.02
2017-03-22T08:27:29.195Z,11.97
2017-03-22T08:28:10.091Z,11.95
2017-03-22T08:28:50.968Z,12.04
2017-03-22T08:29:31.861Z,11.86
2017-03-22T08:30:12.757Z,11.86
2017-03-22T08:30:53.661Z,12.1
2017-03-22T08:31:34.581Z,11.99
2017-03-22T08:32:15.471Z,11.97
2017-03-22T08:32:56.369Z,12.04
2017-03-22T08:33:37.270Z,12.24
2017-03-22T08:34:18.155Z,12.29
2017-03-22T08:34:59.051Z,12.46
2017-03-22T08:35:39.951Z,12.53
2017-03-22T08:36:20.859Z,12.6
2017-03-22T08:37:01.759Z,12.68
2017-03-22T08:37:42.658Z,12.68
2017-03-22T08:38:23.557Z,12.73
2017-03-22T08:39:04.459Z,12.83
2017-03-22T08:39:45.354Z,13.05
2017-03-22T08:40:26.248Z,12.98
2017-03-22T08:41:07.147Z,12.94
2017-03-22T08:41:48.051Z,12.7
2017-03-22T08:42:28.951Z,12.87
2017-03-22T08:43:09.850Z,12.85
2017-03-22T08:43:50.748Z,12.86
2017-03-22T08:44:31.648Z,12.95
2017-03-22T08:45:12.548Z,12.91
2017-03-22T08:45:53.451Z,12.95
2017-03-22T08:46:34.345Z,12.93
2017-03-22T08:47:15.250Z,12.94
2017-03-22T08:47:56.150Z,12.85
2017-03-22T08:48:37.050Z,13.03
2017-03-22T08:49:17.949Z,12.93
2017-03-22T08:49:58.842Z,12.83
2017-03-22T08:50:39.744Z,13.08
2017-03-22T08:51:20.646Z,13.15
2017-03-22T08:52:01.547Z,13.09
2017-03-22T08:52:42.451Z,13.25
2017-03-22T08:53:23.351Z,13.38
2017-03-22T08:54:04.249Z,13.37
2017-03-22T08:54:45.154Z,13.44
2017-03-22T08:55:26.058Z,13.54
2017-03-22T08:56:06.966Z,13.35
2017-03-22T08:56:47.870Z,13.3
2017-03-22T08:57:28.773Z,13.27
2017-03-22T08:58:09.690Z,13.28
2017-03-22T08:58:50.584Z,13.13
2017-03-22T08:59:31.485Z,13.38
2017-03-22T09:00:12.392Z,13.83
2017-03-22T09:00:53.296Z,13.79
2017-03-22T09:01:34.211Z,13.95
2017-03-22T09:02:15.113Z,13.3
2017-03-22T09:02:56.026Z,13.04
2017-03-22T09:03:36.924Z,13.15
2017-03-22T09:04:17.829Z,12.75
2017-03-22T09:04:58.734Z,12.55
2017-03-22T09:05:39.637Z,12.53